createdAt,value
2023-03-20T00:00:21.444Z,24.40
2023-03-20T00:01:21.434Z,24.40
2023-03-20T00:02:21.428Z,23.70
2023-03-20T00:03:21.433Z,24.90
2023-03-20T00:04:21.418Z,24.50
2023-03-20T00:05:21.391Z,24.30
2023-03-20T00:06:21.367Z,24.00
2023-03-20T00:07:21.358Z,24.70
2023-03-20T00:08:21.361Z,23.90
2023-03-20T00:09:21.325Z,24.10
2023-03-20T00:10:21.312Z,23.90
2023-03-20T00:11:21.306Z,24.70
2023-03-20T00:12:21.294Z,24.20
2023-03-20T00:13:21.304Z,24.70
2023-03-20T00:14:21.263Z,24.90
2023-03-20T00:15:21.248Z,25.50
2023-03-20T00:16:21.303Z,24.00
2023-03-20T00:17:21.413Z,23.50
2023-03-20T00:18:21.236Z,25.20
2023-03-20T00:19:21.197Z,24.80
2023-03-20T00:20:21.178Z,23.80
2023-03-20T00:21:21.189Z,24.30
2023-03-20T00:22:21.175Z,24.70
2023-03-20T00:23:21.170Z,24.90
2023-03-20T00:24:21.130Z,24.00
2023-03-20T00:25:21.105Z,23.30
2023-03-20T00:26:21.127Z,24.60
2023-03-20T00:27:21.081Z,24.40
2023-03-20T00:28:21.130Z,24.40
2023-03-20T00:29:21.117Z,25.50
2023-03-20T00:30:21.059Z,24.00
2023-03-20T00:31:21.134Z,23.80
2023-03-20T00:32:21.053Z,24.40
2023-03-20T00:33:21.037Z,24.60
2023-03-20T00:34:20.991Z,25.00
2023-03-20T00:35:21.008Z,24.60
2023-03-20T00:36:20.975Z,24.50
2023-03-20T00:37:21.040Z,25.10
2023-03-20T00:38:20.998Z,24.70
2023-03-20T00:39:20.952Z,25.20
2023-03-20T00:40:20.928Z,25.40
2023-03-20T00:41:20.967Z,25.40
2023-03-20T00:42:20.905Z,26.10
2023-03-20T00:43:20.910Z,25.60
2023-03-20T00:44:20.871Z,27.30
2023-03-20T00:46:35.011Z,28.10
2023-03-20T00:47:35.900Z,26.80
2023-03-20T00:48:35.919Z,27.50
2023-03-20T00:49:35.940Z,28.60
2023-03-20T00:50:35.877Z,27.10
2023-03-20T00:51:35.868Z,28.10
2023-03-20T00:52:35.868Z,27.70
2023-03-20T00:53:35.870Z,27.80
2023-03-20T00:54:35.808Z,27.50
2023-03-20T00:55:36.061Z,28.60
2023-03-20T00:56:35.791Z,28.00
2023-03-20T00:57:35.772Z,28.50
2023-03-20T00:58:35.809Z,29.90
2023-03-20T00:59:35.755Z,29.60
2023-03-20T01:00:35.766Z,28.80
2023-03-20T01:01:42.294Z,28.70
2023-03-20T01:02:43.240Z,28.80
2023-03-20T01:03:44.347Z,28.80
2023-03-20T01:04:42.229Z,28.40
2023-03-20T01:05:42.285Z,29.40
2023-03-20T01:06:42.174Z,29.20
2023-03-20T01:07:35.691Z,30.20
2023-03-20T01:08:35.670Z,29.10
2023-03-20T01:09:35.635Z,30.30
2023-03-20T01:10:35.634Z,29.30
2023-03-20T01:11:35.598Z,30.50
2023-03-20T01:12:35.576Z,30.40
2023-03-20T01:13:35.576Z,30.10
2023-03-20T01:14:35.547Z,31.20
2023-03-20T01:15:35.846Z,30.80
2023-03-20T01:16:35.623Z,31.00
2023-03-20T01:17:35.507Z,30.70
2023-03-20T01:18:35.531Z,30.70
2023-03-20T01:19:35.486Z,30.30
2023-03-20T01:20:35.476Z,30.50
2023-03-20T01:21:35.466Z,30.30
2023-03-20T01:22:35.449Z,30.00
2023-03-20T01:23:35.458Z,30.50
2023-03-20T01:24:35.430Z,29.60
2023-03-20T01:25:35.599Z,31.10
2023-03-20T01:26:35.415Z,29.90
2023-03-20T01:27:35.442Z,31.10
2023-03-20T01:28:35.383Z,31.10
2023-03-20T01:29:35.350Z,30.90
2023-03-20T01:30:35.348Z,31.00
2023-03-20T01:31:35.403Z,30.30
2023-03-20T01:32:35.428Z,31.40
2023-03-20T01:33:35.326Z,30.40
2023-03-20T01:34:35.292Z,31.10
2023-03-20T01:35:35.680Z,31.20
2023-03-20T01:36:35.261Z,31.40
2023-03-20T01:37:35.292Z,30.80
2023-03-20T01:38:35.249Z,31.00
2023-03-20T01:39:35.270Z,31.00
2023-03-20T01:40:35.206Z,30.60
2023-03-20T01:41:35.205Z,31.00
2023-03-20T01:42:35.184Z,30.30
2023-03-20T01:43:35.196Z,31.20
2023-03-20T01:44:35.165Z,31.60
2023-03-20T01:45:35.532Z,31.50
2023-03-20T01:46:35.134Z,32.10
2023-03-20T01:47:35.124Z,31.30
2023-03-20T01:48:35.164Z,31.80
2023-03-20T01:49:35.101Z,31.90
2023-03-20T01:50:35.080Z,32.30
2023-03-20T01:51:35.070Z,31.00
2023-03-20T01:52:35.054Z,32.60
2023-03-20T01:53:35.083Z,31.30
2023-03-20T01:54:35.026Z,32.00
2023-03-20T01:55:35.286Z,31.70
2023-03-20T01:56:35.013Z,31.30
2023-03-20T01:57:35.038Z,31.60
2023-03-20T01:58:34.992Z,31.30
2023-03-20T01:59:34.963Z,31.80
2023-03-20T02:00:34.955Z,32.00
2023-03-20T02:01:35.000Z,31.90
2023-03-20T02:02:34.928Z,32.40
2023-03-20T02:03:34.940Z,32.40
2023-03-20T02:04:34.944Z,33.40
2023-03-20T02:05:35.136Z,34.20
2023-03-20T02:06:34.929Z,33.20
2023-03-20T02:07:34.864Z,33.10
2023-03-20T02:08:34.874Z,33.40
2023-03-20T02:09:34.863Z,32.90
2023-03-20T02:10:34.863Z,33.30
2023-03-20T02:11:34.824Z,32.60
2023-03-20T02:12:34.799Z,33.10
2023-03-20T02:13:34.800Z,31.90
2023-03-20T02:14:34.775Z,31.40
2023-03-20T02:15:35.108Z,31.60
2023-03-20T02:16:34.794Z,32.60
2023-03-20T02:17:34.741Z,31.60
2023-03-20T02:18:34.733Z,32.40
2023-03-20T02:19:34.710Z,32.00
2023-03-20T02:20:34.689Z,32.40
2023-03-20T02:21:34.689Z,32.30
2023-03-20T02:22:34.679Z,33.70
2023-03-20T02:23:34.704Z,33.80
2023-03-20T02:24:34.641Z,32.60
2023-03-20T02:25:34.959Z,33.10
2023-03-20T02:26:34.637Z,34.10
2023-03-20T02:27:34.618Z,31.20
2023-03-20T02:28:34.624Z,33.00
2023-03-20T02:29:34.595Z,31.80
2023-03-20T02:30:34.597Z,32.30
2023-03-20T02:31:34.571Z,34.00
2023-03-20T02:32:34.584Z,32.80
2023-03-20T02:33:34.543Z,33.40
2023-03-20T02:34:34.512Z,33.10
2023-03-20T02:35:34.887Z,33.60
2023-03-20T02:36:34.489Z,33.10
2023-03-20T02:37:34.475Z,33.60
2023-03-20T02:38:34.505Z,33.90
2023-03-20T02:39:34.456Z,35.20
2023-03-20T02:40:34.443Z,36.50
2023-03-20T02:41:34.512Z,37.10
2023-03-20T02:42:34.409Z,36.70
2023-03-20T02:43:34.426Z,35.80
2023-03-20T02:44:34.393Z,35.90
2023-03-20T02:45:34.685Z,36.80
2023-03-20T02:46:34.423Z,36.20
2023-03-20T02:47:34.356Z,36.80
2023-03-20T02:48:34.324Z,36.40
2023-03-20T02:49:34.349Z,35.90
2023-03-20T02:50:34.313Z,35.00
2023-03-20T02:51:34.297Z,35.10
2023-03-20T02:52:34.291Z,35.00
2023-03-20T02:53:34.269Z,36.20
2023-03-20T02:54:34.284Z,36.10
2023-03-20T02:55:34.573Z,34.40
2023-03-20T02:56:34.229Z,35.10
2023-03-20T02:57:34.246Z,34.60
2023-03-20T02:58:34.218Z,34.50
2023-03-20T02:59:34.210Z,33.70
2023-03-20T03:00:34.175Z,33.30
2023-03-20T03:01:34.240Z,33.70
2023-03-20T03:02:34.166Z,32.50
2023-03-20T03:03:34.228Z,33.00
2023-03-20T03:04:41.895Z,32.00
2023-03-20T03:05:34.351Z,33.00
2023-03-20T03:06:34.098Z,32.50
2023-03-20T03:07:34.104Z,31.40
2023-03-20T03:08:34.073Z,32.80
2023-03-20T03:09:34.089Z,32.40
2023-03-20T03:10:34.058Z,31.50
2023-03-20T03:11:34.038Z,31.80
2023-03-20T03:12:34.054Z,30.90
2023-03-20T03:13:34.013Z,31.60
2023-03-20T03:14:34.075Z,32.30
2023-03-20T03:15:34.298Z,32.20
2023-03-20T03:16:33.963Z,31.70
2023-03-20T03:17:33.973Z,31.60
2023-03-20T03:18:33.960Z,32.60
2023-03-20T03:19:41.919Z,33.20
2023-03-20T03:20:33.933Z,33.00
2023-03-20T03:21:33.913Z,31.60
2023-03-20T03:22:33.885Z,32.80
2023-03-20T03:23:33.900Z,32.50
2023-03-20T03:24:40.841Z,32.90
2023-03-20T03:25:34.106Z,32.10
2023-03-20T03:26:33.833Z,32.30
2023-03-20T03:27:33.831Z,31.50
2023-03-20T03:28:33.865Z,32.40
2023-03-20T03:29:33.808Z,31.00
2023-03-20T03:30:33.784Z,31.50
2023-03-20T03:31:33.845Z,31.90
2023-03-20T03:32:33.995Z,32.80
2023-03-20T03:33:33.783Z,32.10
2023-03-20T03:34:33.781Z,32.40
2023-03-20T03:35:34.078Z,33.30
2023-03-20T03:36:33.710Z,32.30
2023-03-20T03:37:33.702Z,33.10
2023-03-20T03:38:33.687Z,32.90
2023-03-20T03:39:33.690Z,33.10
2023-03-20T03:40:33.660Z,33.60
2023-03-20T03:41:33.644Z,35.30
2023-03-20T03:42:33.638Z,33.70
2023-03-20T03:43:33.614Z,34.00
2023-03-20T03:44:33.634Z,33.70
2023-03-20T03:45:34.034Z,34.70
2023-03-20T03:46:33.656Z,34.50
2023-03-20T03:47:33.576Z,34.50
2023-03-20T03:48:33.625Z,34.30
2023-03-20T03:49:33.564Z,33.50
2023-03-20T03:50:33.540Z,33.00
2023-03-20T03:51:33.549Z,32.20
2023-03-20T03:52:33.504Z,32.00
2023-03-20T03:53:33.503Z,33.20
2023-03-20T03:54:33.517Z,33.80
2023-03-20T03:55:33.647Z,34.20
2023-03-20T03:56:33.446Z,34.60
2023-03-20T03:57:33.459Z,33.90
2023-03-20T03:58:33.424Z,34.40
2023-03-20T03:59:33.427Z,33.80
2023-03-20T04:00:33.401Z,33.80
2023-03-20T04:01:33.415Z,30.80
2023-03-20T04:02:33.369Z,28.40
2023-03-20T04:03:33.376Z,27.10
2023-03-20T04:04:33.410Z,27.20
2023-03-20T04:05:33.745Z,28.20
2023-03-20T04:06:33.320Z,28.70
2023-03-20T04:07:33.311Z,28.40
2023-03-20T04:08:33.291Z,29.00
2023-03-20T04:09:33.309Z,29.80
2023-03-20T04:10:33.278Z,27.70
2023-03-20T04:11:33.269Z,28.30
2023-03-20T04:12:33.247Z,29.30
2023-03-20T04:13:33.247Z,28.60
2023-03-20T04:14:33.244Z,28.30
2023-03-20T04:15:33.497Z,29.00
2023-03-20T04:16:33.223Z,27.30
2023-03-20T04:17:33.204Z,27.30
2023-03-20T04:18:33.190Z,26.20
2023-03-20T04:19:33.170Z,28.50
2023-03-20T04:20:33.140Z,27.80
2023-03-20T04:21:33.135Z,27.70
2023-03-20T04:22:33.116Z,28.80
2023-03-20T04:23:33.206Z,28.50
2023-03-20T04:24:33.145Z,26.80
2023-03-20T04:25:33.170Z,27.40
2023-03-20T04:26:33.132Z,26.90
2023-03-20T04:27:33.215Z,27.40
2023-03-20T04:28:33.167Z,27.00
2023-03-20T04:29:33.089Z,27.20
2023-03-20T04:30:33.064Z,28.90
2023-03-20T04:31:33.180Z,27.70
2023-03-20T04:32:33.061Z,27.90
2023-03-20T04:33:33.053Z,28.50
2023-03-20T04:34:33.042Z,27.90
2023-03-20T04:35:33.167Z,28.30
2023-03-20T04:36:33.047Z,28.50
2023-03-20T04:37:32.984Z,29.10
2023-03-20T04:38:32.968Z,27.90
2023-03-20T04:39:33.011Z,29.10
2023-03-20T04:40:32.915Z,29.20
2023-03-20T04:41:32.999Z,29.50
2023-03-20T04:42:32.881Z,29.00
2023-03-20T04:43:32.908Z,29.70
2023-03-20T04:44:32.965Z,30.40
2023-03-20T04:45:32.972Z,31.20
2023-03-20T04:46:32.878Z,30.70
2023-03-20T04:47:32.823Z,30.30
2023-03-20T04:48:32.823Z,31.50
2023-03-20T04:49:32.837Z,31.00
2023-03-20T04:50:32.830Z,30.80
2023-03-20T04:51:32.840Z,32.20
2023-03-20T04:52:32.779Z,31.20
2023-03-20T04:53:32.813Z,31.90
2023-03-20T04:54:33.202Z,33.10
2023-03-20T04:55:32.807Z,31.90
2023-03-20T04:56:32.681Z,32.20
2023-03-20T04:57:32.720Z,31.70
2023-03-20T04:58:33.072Z,32.00
2023-03-20T04:59:32.709Z,32.90
2023-03-20T05:00:32.601Z,33.80
2023-03-20T05:01:32.753Z,34.50
2023-03-20T05:02:32.680Z,33.90
2023-03-20T05:03:33.129Z,33.70
2023-03-20T05:04:32.991Z,34.40
2023-03-20T05:05:32.596Z,34.90
2023-03-20T05:06:32.763Z,33.60
2023-03-20T05:07:32.570Z,34.60
2023-03-20T05:08:32.553Z,33.70
2023-03-20T05:09:32.634Z,34.20
2023-03-20T05:10:32.554Z,35.30
2023-03-20T05:11:32.504Z,34.70
2023-03-20T05:12:32.473Z,34.70
2023-03-20T05:13:32.503Z,34.90
2023-03-20T05:14:32.503Z,35.50
2023-03-20T05:15:32.434Z,35.30
2023-03-20T05:16:32.497Z,35.50
2023-03-20T05:17:32.476Z,36.50
2023-03-20T05:18:32.480Z,36.40
2023-03-20T05:19:32.424Z,36.40
2023-03-20T05:20:32.390Z,34.40
2023-03-20T05:21:32.377Z,34.70
2023-03-20T05:22:32.370Z,33.90
2023-03-20T05:23:32.388Z,33.90
2023-03-20T05:24:32.346Z,35.10
2023-03-20T05:25:32.321Z,34.90
2023-03-20T05:26:32.346Z,34.30
2023-03-20T05:27:32.311Z,32.80
2023-03-20T05:28:32.290Z,32.80
2023-03-20T05:29:32.270Z,32.60
2023-03-20T05:30:32.236Z,33.60
2023-03-20T05:31:32.268Z,33.20
2023-03-20T05:32:32.246Z,34.20
2023-03-20T05:33:32.189Z,32.90
2023-03-20T05:34:32.206Z,32.40
2023-03-20T05:35:32.165Z,32.70
2023-03-20T05:36:32.166Z,32.10
2023-03-20T05:37:32.145Z,33.10
2023-03-20T05:38:32.148Z,34.30
2023-03-20T05:39:32.138Z,35.40
2023-03-20T05:40:32.093Z,33.90
2023-03-20T05:41:32.124Z,35.20
2023-03-20T05:42:32.033Z,34.50
2023-03-20T05:43:32.091Z,35.50
2023-03-20T05:44:32.100Z,36.10
2023-03-20T05:45:32.041Z,36.00
2023-03-20T05:46:32.058Z,35.10
2023-03-20T05:47:32.145Z,35.20
2023-03-20T05:48:32.149Z,35.40
2023-03-20T05:49:32.527Z,34.30
2023-03-20T05:50:32.034Z,34.20
2023-03-20T05:51:31.994Z,34.30
2023-03-20T05:52:32.007Z,34.50
2023-03-20T05:53:32.007Z,33.90
2023-03-20T05:54:31.926Z,33.10
2023-03-20T05:55:31.918Z,34.20
2023-03-20T05:56:32.052Z,35.40
2023-03-20T05:57:31.890Z,34.50
2023-03-20T05:58:31.951Z,35.00
2023-03-20T05:59:31.940Z,34.20
2023-03-20T06:00:31.876Z,35.40
2023-03-20T06:01:31.866Z,34.00
2023-03-20T06:02:31.920Z,34.30
2023-03-20T06:03:31.896Z,34.90
2023-03-20T06:04:31.852Z,35.20
2023-03-20T06:05:31.806Z,34.30
2023-03-20T06:06:31.773Z,33.70
2023-03-20T06:07:31.777Z,32.80
2023-03-20T06:08:31.845Z,32.10
2023-03-20T06:09:31.757Z,32.60
2023-03-20T06:10:31.730Z,32.30
2023-03-20T06:11:31.725Z,33.00
2023-03-20T06:12:31.668Z,32.40
2023-03-20T06:13:31.794Z,32.00
2023-03-20T06:14:31.643Z,30.70
2023-03-20T06:15:31.760Z,31.30
2023-03-20T06:16:31.709Z,30.80
2023-03-20T06:17:31.632Z,30.20
2023-03-20T06:18:31.745Z,29.10
2023-03-20T06:19:31.697Z,28.90
2023-03-20T06:20:31.618Z,28.40
2023-03-20T06:21:31.592Z,29.30
2023-03-20T06:22:31.618Z,29.80
2023-03-20T06:23:31.538Z,30.60
2023-03-20T06:24:31.682Z,28.80
2023-03-20T06:25:31.590Z,29.20
2023-03-20T06:26:31.527Z,28.80
2023-03-20T06:27:31.497Z,28.50
2023-03-20T06:28:31.569Z,27.50
2023-03-20T06:29:31.482Z,28.10
2023-03-20T06:30:31.486Z,28.60
2023-03-20T06:31:31.582Z,26.80
2023-03-20T06:32:31.442Z,25.20
2023-03-20T06:33:31.376Z,25.90
2023-03-20T06:34:31.460Z,26.00
2023-03-20T06:35:31.548Z,26.20
2023-03-20T06:36:31.368Z,24.80
2023-03-20T06:37:31.396Z,25.60
2023-03-20T06:38:31.370Z,24.80
2023-03-20T06:39:31.326Z,25.30
2023-03-20T06:40:31.309Z,24.50
2023-03-20T06:41:34.650Z,25.60
2023-03-20T06:42:31.285Z,24.20
2023-03-20T06:43:32.000Z,24.40
2023-03-20T06:44:31.262Z,24.40
2023-03-20T06:45:31.256Z,25.50
2023-03-20T06:46:31.350Z,24.50
2023-03-20T06:47:31.196Z,25.30
2023-03-20T06:48:31.186Z,25.30
2023-03-20T06:49:31.176Z,25.90
2023-03-20T06:50:31.178Z,25.70
2023-03-20T06:51:31.144Z,25.90
2023-03-20T06:52:31.125Z,26.60
2023-03-20T06:53:31.111Z,26.00
2023-03-20T06:54:31.124Z,25.50
2023-03-20T06:55:31.175Z,25.10
2023-03-20T06:56:31.097Z,25.50
2023-03-20T06:57:31.067Z,25.90
2023-03-20T06:58:31.050Z,26.50
2023-03-20T06:59:31.062Z,26.30
2023-03-20T07:00:31.184Z,27.10
2023-03-20T07:01:31.035Z,27.30
2023-03-20T07:02:30.997Z,25.80
2023-03-20T07:03:31.027Z,25.80
2023-03-20T07:04:31.023Z,24.50
2023-03-20T07:05:31.008Z,23.70
2023-03-20T07:06:30.963Z,23.60
2023-03-20T07:07:30.937Z,21.80
2023-03-20T07:08:30.922Z,21.90
2023-03-20T07:09:30.968Z,20.80
2023-03-20T07:10:30.939Z,20.10
2023-03-20T07:11:30.892Z,21.30
2023-03-20T07:12:30.874Z,20.00
2023-03-20T07:13:30.879Z,20.90
2023-03-20T07:14:30.861Z,21.30
2023-03-20T07:15:30.871Z,21.30
2023-03-20T07:16:30.849Z,21.00
2023-03-20T07:17:30.823Z,20.90
2023-03-20T07:18:30.810Z,20.30
2023-03-20T07:19:30.775Z,19.90
2023-03-20T07:20:30.858Z,19.20
2023-03-20T07:21:30.762Z,19.80
2023-03-20T07:22:30.755Z,20.10
2023-03-20T07:23:30.806Z,19.90
2023-03-20T07:24:30.717Z,19.50
2023-03-20T07:25:41.880Z,18.60
2023-03-20T07:26:30.712Z,19.10
2023-03-20T07:27:30.751Z,18.40
2023-03-20T07:28:30.697Z,18.90
2023-03-20T07:29:30.649Z,18.00
2023-03-20T07:30:30.665Z,16.70
2023-03-20T07:31:30.778Z,15.80
2023-03-20T07:32:30.618Z,15.80
2023-03-20T07:33:30.636Z,16.00
2023-03-20T07:34:30.619Z,15.40
2023-03-20T07:35:30.639Z,15.40
2023-03-20T07:36:30.654Z,15.40
2023-03-20T07:37:30.560Z,16.20
2023-03-20T07:38:30.546Z,17.00
2023-03-20T07:39:31.327Z,16.50
2023-03-20T07:40:30.559Z,14.50
2023-03-20T07:41:30.491Z,14.20
2023-03-20T07:42:30.524Z,15.00
2023-03-20T07:43:30.466Z,15.70
2023-03-20T07:44:30.467Z,15.50
2023-03-20T07:45:30.520Z,15.20
2023-03-20T07:46:30.448Z,15.40
2023-03-20T07:47:30.433Z,15.10
2023-03-20T07:48:30.495Z,15.20
2023-03-20T07:49:30.403Z,15.30
2023-03-20T07:50:30.387Z,15.70
2023-03-20T07:51:30.364Z,15.70
2023-03-20T07:52:30.388Z,16.40
2023-03-20T07:53:30.371Z,15.60
2023-03-20T07:54:30.335Z,16.40
2023-03-20T07:55:30.327Z,16.30
2023-03-20T07:56:30.309Z,15.70
2023-03-20T07:57:30.284Z,16.20
2023-03-20T07:58:30.282Z,15.90
2023-03-20T07:59:30.257Z,16.10
2023-03-20T08:00:30.328Z,17.80
2023-03-20T08:01:30.281Z,16.40
2023-03-20T08:02:30.340Z,15.70
2023-03-20T08:03:30.352Z,15.80
2023-03-20T08:04:30.201Z,15.80
2023-03-20T08:05:30.242Z,16.10
2023-03-20T08:06:30.328Z,15.90
2023-03-20T08:07:30.158Z,15.70
2023-03-20T08:08:30.165Z,15.10
2023-03-20T08:09:30.237Z,15.60
2023-03-20T08:10:30.171Z,15.50
2023-03-20T08:11:31.173Z,14.70
2023-03-20T08:12:30.112Z,14.90
2023-03-20T08:13:30.111Z,14.50
2023-03-20T08:14:30.074Z,14.20
2023-03-20T08:15:30.094Z,14.20
2023-03-20T08:16:30.076Z,13.90
2023-03-20T08:17:30.084Z,14.70
2023-03-20T08:18:30.030Z,15.10
2023-03-20T08:19:30.038Z,14.90
2023-03-20T08:20:30.030Z,15.30
2023-03-20T08:21:29.990Z,15.80
2023-03-20T08:22:30.024Z,14.90
2023-03-20T08:23:29.960Z,15.30
2023-03-20T08:24:30.010Z,15.30
2023-03-20T08:25:29.945Z,15.40
2023-03-20T08:26:29.940Z,16.10
2023-03-20T08:27:29.913Z,15.10
2023-03-20T08:28:46.195Z,15.50
2023-03-20T08:29:29.893Z,16.00
2023-03-20T08:30:29.910Z,15.40
2023-03-20T08:31:29.938Z,15.50
2023-03-20T08:32:29.931Z,15.40
2023-03-20T08:33:30.085Z,15.30
2023-03-20T08:34:29.828Z,15.00
2023-03-20T08:35:45.397Z,14.80
2023-03-20T08:36:29.801Z,15.50
2023-03-20T08:37:29.787Z,15.10
2023-03-20T08:38:30.480Z,15.10
2023-03-20T08:39:29.753Z,15.00
2023-03-20T08:40:29.758Z,14.90
2023-03-20T08:41:29.725Z,15.10
2023-03-20T08:42:29.750Z,14.10
2023-03-20T08:43:29.729Z,14.00
2023-03-20T08:44:29.737Z,14.20
2023-03-20T08:45:29.723Z,13.90
2023-03-20T08:46:29.677Z,13.90
2023-03-20T08:47:29.788Z,13.80
2023-03-20T08:48:29.668Z,13.90
2023-03-20T08:49:29.635Z,13.70
2023-03-20T08:50:29.623Z,13.80
2023-03-20T08:51:29.602Z,14.70
2023-03-20T08:52:29.607Z,14.50
2023-03-20T08:53:29.608Z,14.80
2023-03-20T08:54:29.568Z,14.20
2023-03-20T08:55:30.599Z,13.90
2023-03-20T08:56:29.538Z,13.40
2023-03-20T08:57:29.757Z,13.80
2023-03-20T08:58:29.539Z,13.90
2023-03-20T08:59:29.501Z,13.80
2023-03-20T09:00:29.485Z,13.00
2023-03-20T09:01:46.044Z,13.20
2023-03-20T09:02:29.627Z,13.40
2023-03-20T09:03:29.973Z,13.40
2023-03-20T09:04:29.465Z,13.40
2023-03-20T09:05:29.449Z,13.30
2023-03-20T09:06:29.415Z,13.50
2023-03-20T09:07:29.417Z,13.20
2023-03-20T09:08:29.396Z,13.10
2023-03-20T09:09:29.665Z,12.80
2023-03-20T09:10:29.388Z,13.20
2023-03-20T09:11:29.356Z,14.10
2023-03-20T09:12:29.335Z,13.90
2023-03-20T09:13:29.332Z,12.80
2023-03-20T09:14:29.326Z,13.30
2023-03-20T09:15:29.292Z,13.00
2023-03-20T09:16:29.500Z,13.20
2023-03-20T09:17:30.109Z,12.40
2023-03-20T09:18:29.277Z,12.70
2023-03-20T09:19:31.760Z,13.30
2023-03-20T09:20:29.259Z,13.20
2023-03-20T09:21:29.273Z,12.70
2023-03-20T09:22:29.230Z,13.20
2023-03-20T09:23:29.213Z,12.30
2023-03-20T09:24:29.204Z,12.40
2023-03-20T09:25:29.267Z,13.30
2023-03-20T09:26:29.193Z,13.10
2023-03-20T09:27:29.154Z,12.40
2023-03-20T09:28:29.178Z,13.00
2023-03-20T09:29:29.134Z,13.00
2023-03-20T09:30:29.138Z,12.50
2023-03-20T09:31:29.220Z,12.40
2023-03-20T09:32:29.129Z,12.50
2023-03-20T09:33:29.101Z,13.10
2023-03-20T09:34:29.101Z,13.00
2023-03-20T09:35:29.063Z,12.90
2023-03-20T09:36:29.067Z,11.80
2023-03-20T09:37:29.027Z,11.20
2023-03-20T09:38:29.018Z,11.70
2023-03-20T09:39:28.998Z,10.80
2023-03-20T09:40:29.001Z,12.30
2023-03-20T09:41:29.013Z,12.30
2023-03-20T09:42:28.976Z,12.20
2023-03-20T09:43:28.960Z,11.80
2023-03-20T09:44:28.945Z,11.10
2023-03-20T09:45:28.965Z,11.50
2023-03-20T09:46:29.076Z,11.10
2023-03-20T09:47:28.913Z,11.00
2023-03-20T09:48:28.915Z,11.00
2023-03-20T09:49:28.904Z,10.70
2023-03-20T09:50:28.879Z,11.40
2023-03-20T09:51:28.910Z,10.80
2023-03-20T09:52:28.838Z,11.10
2023-03-20T09:53:28.901Z,11.50
2023-03-20T09:54:28.877Z,11.10
2023-03-20T09:55:28.846Z,11.00
2023-03-20T09:56:28.869Z,10.30
2023-03-20T09:57:28.828Z,10.70
2023-03-20T09:58:28.765Z,9.50
2023-03-20T09:59:28.757Z,10.20
2023-03-20T10:00:28.762Z,9.60
2023-03-20T10:01:28.846Z,10.60
2023-03-20T10:02:28.715Z,10.50
2023-03-20T10:03:28.719Z,10.00
2023-03-20T10:04:28.827Z,10.80
2023-03-20T10:05:28.683Z,9.70
2023-03-20T10:06:28.692Z,8.80
2023-03-20T10:07:28.652Z,9.80
2023-03-20T10:08:28.660Z,9.30
2023-03-20T10:09:28.692Z,8.90
2023-03-20T10:10:28.599Z,8.40
2023-03-20T10:11:28.634Z,8.50
2023-03-20T10:12:28.597Z,8.20
2023-03-20T10:13:28.597Z,8.40
2023-03-20T10:14:28.555Z,8.20
2023-03-20T10:15:28.589Z,8.20
2023-03-20T10:16:28.567Z,9.00
2023-03-20T10:17:34.561Z,7.80
2023-03-20T10:18:28.536Z,7.40
2023-03-20T10:19:28.524Z,7.20
2023-03-20T10:20:28.496Z,7.20
2023-03-20T10:21:28.495Z,7.90
2023-03-20T10:22:28.464Z,7.40
2023-03-20T10:23:28.519Z,7.00
2023-03-20T10:24:28.452Z,7.80
2023-03-20T10:25:28.432Z,8.00
2023-03-20T10:26:28.442Z,7.30
2023-03-20T10:27:28.537Z,7.80
2023-03-20T10:28:28.427Z,7.50
2023-03-20T10:29:28.382Z,6.60
2023-03-20T10:30:28.369Z,6.30
2023-03-20T10:31:28.396Z,6.60
2023-03-20T10:32:34.350Z,6.00
2023-03-20T10:33:28.370Z,5.70
2023-03-20T10:34:28.301Z,6.00
2023-03-20T10:35:28.323Z,5.10
2023-03-20T10:36:28.292Z,4.70
2023-03-20T10:37:28.278Z,5.30
2023-03-20T10:38:28.289Z,5.70
2023-03-20T10:39:28.251Z,6.00
2023-03-20T10:40:28.248Z,5.30
2023-03-20T10:41:28.216Z,5.30
2023-03-20T10:42:28.207Z,5.50
2023-03-20T10:43:28.209Z,5.00
2023-03-20T10:44:28.195Z,5.40
2023-03-20T10:45:28.177Z,5.90
2023-03-20T10:46:28.226Z,6.00
2023-03-20T10:47:28.266Z,5.90
2023-03-20T10:48:28.144Z,5.70
2023-03-20T10:49:28.126Z,5.90
2023-03-20T10:50:28.110Z,6.60
2023-03-20T10:51:28.165Z,6.50
2023-03-20T10:52:28.077Z,6.80
2023-03-20T10:53:28.069Z,6.60
2023-03-20T10:54:28.051Z,6.30
2023-03-20T10:55:28.058Z,6.50
2023-03-20T10:56:28.048Z,6.70
2023-03-20T10:57:28.059Z,7.10
2023-03-20T10:58:28.052Z,6.50
2023-03-20T10:59:27.995Z,7.20
2023-03-20T11:00:27.981Z,7.30
2023-03-20T11:01:28.038Z,6.70
2023-03-20T11:02:27.953Z,7.90
2023-03-20T11:03:28.014Z,7.40
2023-03-20T11:04:28.059Z,7.30
2023-03-20T11:05:27.930Z,7.10
2023-03-20T11:06:27.923Z,6.20
2023-03-20T11:07:27.913Z,6.50
2023-03-20T11:08:27.890Z,5.90
2023-03-20T11:09:27.876Z,6.90
2023-03-20T11:10:27.849Z,6.50
2023-03-20T11:11:27.841Z,7.00
2023-03-20T11:12:27.820Z,6.10
2023-03-20T11:13:27.831Z,6.30
2023-03-20T11:14:27.805Z,6.20
2023-03-20T11:15:27.797Z,6.00
2023-03-20T11:16:27.818Z,6.30
2023-03-20T11:17:27.785Z,5.80
2023-03-20T11:18:27.798Z,6.50
2023-03-20T11:19:27.746Z,6.00
2023-03-20T11:20:27.732Z,6.20
2023-03-20T11:21:27.740Z,6.50
2023-03-20T11:22:27.724Z,6.70
2023-03-20T11:23:27.770Z,6.30
2023-03-20T11:24:27.674Z,6.70
2023-03-20T11:25:27.667Z,6.50
2023-03-20T11:26:27.664Z,7.20
2023-03-20T11:27:27.653Z,6.80
2023-03-20T11:28:27.655Z,7.30
2023-03-20T11:29:27.619Z,7.20
2023-03-20T11:30:27.592Z,7.10
2023-03-20T11:31:27.638Z,7.00
2023-03-20T11:32:27.575Z,6.70
2023-03-20T11:33:27.601Z,7.10
2023-03-20T11:34:27.554Z,7.20
2023-03-20T11:35:27.547Z,7.30
2023-03-20T11:36:28.258Z,7.70
2023-03-20T11:37:27.510Z,7.20
2023-03-20T11:38:28.237Z,7.10
2023-03-20T11:39:27.491Z,7.00
2023-03-20T11:40:27.476Z,7.10
2023-03-20T11:41:27.459Z,7.10
2023-03-20T11:42:27.447Z,7.40
2023-03-20T11:43:27.520Z,7.70
2023-03-20T11:44:27.420Z,5.40
2023-03-20T11:45:27.403Z,5.00
2023-03-20T11:46:27.427Z,5.30
2023-03-20T11:47:27.392Z,5.00
2023-03-20T11:48:27.366Z,6.40
2023-03-20T11:49:27.364Z,6.40
2023-03-20T11:50:27.340Z,6.30
2023-03-20T11:51:27.407Z,6.30
2023-03-20T11:52:27.325Z,6.50
2023-03-20T11:53:27.321Z,6.60
2023-03-20T11:54:27.298Z,6.40
2023-03-20T11:55:27.324Z,6.90
2023-03-20T11:56:27.286Z,6.80
2023-03-20T11:57:27.256Z,7.30
2023-03-20T11:58:27.268Z,7.10
2023-03-20T11:59:27.243Z,7.20
2023-03-20T12:00:27.227Z,7.10
2023-03-20T12:01:27.236Z,6.50
2023-03-20T12:02:27.293Z,6.60
2023-03-20T12:03:27.257Z,6.40
2023-03-20T12:04:27.172Z,6.60
2023-03-20T12:05:27.175Z,7.00
2023-03-20T12:06:27.277Z,7.00
2023-03-20T12:07:27.138Z,7.20
2023-03-20T12:08:27.151Z,6.80
2023-03-20T12:09:27.186Z,6.90
2023-03-20T12:10:27.105Z,6.90
2023-03-20T12:11:27.114Z,7.20
2023-03-20T12:12:27.067Z,7.10
2023-03-20T12:13:27.132Z,6.80
2023-03-20T12:14:27.040Z,7.40
2023-03-20T12:15:27.068Z,7.40
2023-03-20T12:16:27.129Z,7.70
2023-03-20T12:17:27.012Z,7.60
2023-03-20T12:18:27.038Z,7.60
2023-03-20T12:19:26.987Z,7.90
2023-03-20T12:20:26.978Z,7.70
2023-03-20T12:21:26.982Z,7.60
2023-03-20T12:22:26.959Z,8.10
2023-03-20T12:23:26.942Z,7.40
2023-03-20T12:24:26.925Z,7.20
2023-03-20T12:25:26.911Z,7.30
2023-03-20T12:26:26.923Z,7.40
2023-03-20T12:27:26.912Z,7.20
2023-03-20T12:28:26.919Z,7.00
2023-03-20T12:29:26.882Z,6.90
2023-03-20T12:30:26.875Z,7.70
2023-03-20T12:31:26.884Z,7.60
2023-03-20T12:32:26.831Z,6.90
2023-03-20T12:33:26.839Z,6.10
2023-03-20T12:34:26.798Z,6.20
2023-03-20T12:35:26.798Z,5.30
2023-03-20T12:36:26.805Z,6.00
2023-03-20T12:37:26.766Z,6.30
2023-03-20T12:38:26.756Z,6.50
2023-03-20T12:39:26.737Z,5.60
2023-03-20T12:40:28.023Z,6.30
2023-03-20T12:41:26.733Z,6.30
2023-03-20T12:42:26.746Z,6.80
2023-03-20T12:43:26.703Z,6.00
2023-03-20T12:44:26.663Z,6.50
2023-03-20T12:45:26.665Z,6.90
2023-03-20T12:46:26.715Z,6.30
2023-03-20T12:47:26.679Z,5.80
2023-03-20T12:48:26.655Z,6.40
2023-03-20T12:49:26.614Z,5.30
2023-03-20T12:50:26.600Z,5.40
2023-03-20T12:51:26.620Z,6.10
2023-03-20T12:52:26.588Z,5.10
2023-03-20T12:53:26.578Z,4.80
2023-03-20T12:54:26.545Z,4.60
2023-03-20T12:55:26.541Z,4.50
2023-03-20T12:56:26.577Z,5.00
2023-03-20T12:57:26.554Z,4.90
2023-03-20T12:58:26.502Z,4.20
2023-03-20T12:59:26.482Z,4.80